sensor_id;sensor_type;location;lat;lon;timestamp;pressure;altitude;pressure_sealevel;temperature;humidity
28927;BME280;16038;47.692;9.400;2022-11-20T00:01:26;96223.88;;;1.65;100.00
28927;BME280;16038;47.692;9.400;2022-11-20T00:03:52;96232.13;;;1.77;100.00
28927;BME280;16038;47.692;9.400;2022-11-20T00:06:19;96228.44;;;1.82;100.00
28927;BME280;16038;47.692;9.400;2022-11-20T00:08:46;96226.53;;;1.82;100.00
28927;BME280;16038;47.692;9.400;2022-11-20T00:11:14;96222.53;;;1.88;100.00
28927;BME280;16038;47.692;9.400;2022-11-20T00:13:40;96226.47;;;2.00;100.00
28927;BME280;16038;47.692;9.400;2022-11-20T00:16:07;96232.19;;;2.07;100.00
28927;BME280;16038;47.692;9.400;2022-11-20T00:18:34;96227.47;;;1.95;100.00
28927;BME280;16038;47.692;9.400;2022-11-20T00:21:09;96230.75;;;2.09;100.00
28927;BME280;16038;47.692;9.400;2022-11-20T00:23:35;96232.44;;;2.23;100.00
28927;BME280;16038;47.692;9.400;2022-11-20T00:26:06;96234.47;;;2.35;100.00
28927;BME280;16038;47.692;9.400;2022-11-20T00:28:32;96229.69;;;2.40;100.00
28927;BME280;16038;47.692;9.400;2022-11-20T00:31:16;96236.47;;;2.46;100.00
28927;BME280;16038;47.692;9.400;2022-11-20T00:33:42;96242.59;;;2.64;100.00
28927;BME280;16038;47.692;9.400;2022-11-20T00:36:16;96236.81;;;2.75;100.00
28927;BME280;16038;47.692;9.400;2022-11-20T00:38:43;96247.44;;;2.80;100.00
28927;BME280;16038;47.692;9.400;2022-11-20T00:41:12;96257.00;;;2.77;100.00
28927;BME280;16038;47.692;9.400;2022-11-20T00:43:38;96247.59;;;2.83;100.00
28927;BME280;16038;47.692;9.400;2022-11-20T00:46:04;96252.81;;;2.89;100.00
28927;BME280;16038;47.692;9.400;2022-11-20T00:48:31;96254.00;;;3.00;100.00
28927;BME280;16038;47.692;9.400;2022-11-20T00:50:57;96252.50;;;3.32;100.00
28927;BME280;16038;47.692;9.400;2022-11-20T00:53:22;96253.16;;;3.50;100.00
28927;BME280;16038;47.692;9.400;2022-11-20T00:55:56;96254.41;;;3.53;100.00
28927;BME280;16038;47.692;9.400;2022-11-20T00:58:23;96249.88;;;3.66;100.00
28927;BME280;16038;47.692;9.400;2022-11-20T01:00:49;96258.78;;;3.66;100.00
28927;BME280;16038;47.692;9.400;2022-11-20T01:03:16;96264.38;;;3.61;100.00
28927;BME280;16038;47.692;9.400;2022-11-20T01:05:41;96263.53;;;3.69;100.00
28927;BME280;16038;47.692;9.400;2022-11-20T01:08:07;96260.50;;;3.83;100.00
28927;BME280;16038;47.692;9.400;2022-11-20T01:10:33;96258.88;;;3.91;100.00
28927;BME280;16038;47.692;9.400;2022-11-20T01:12:58;96265.66;;;3.97;100.00
28927;BME280;16038;47.692;9.400;2022-11-20T01:15:42;96261.47;;;3.99;100.00
28927;BME280;16038;47.692;9.400;2022-11-20T01:18:08;96262.44;;;3.82;100.00
28927;BME280;16038;47.692;9.400;2022-11-20T01:20:35;96269.22;;;3.89;100.00
28927;BME280;16038;47.692;9.400;2022-11-20T01:23:02;96266.63;;;3.92;100.00
28927;BME280;16038;47.692;9.400;2022-11-20T01:25:27;96273.56;;;4.02;100.00
28927;BME280;16038;47.692;9.400;2022-11-20T01:27:53;96267.00;;;4.03;100.00
28927;BME280;16038;47.692;9.400;2022-11-20T01:30:18;96267.72;;;4.12;100.00
28927;BME280;16038;47.692;9.400;2022-11-20T01:32:44;96266.72;;;4.17;100.00
28927;BME280;16038;47.692;9.400;2022-11-20T01:35:09;96275.63;;;4.17;100.00
28927;BME280;16038;47.692;9.400;2022-11-20T01:37:35;96269.66;;;4.24;100.00
28927;BME280;16038;47.692;9.400;2022-11-20T01:40:01;96276.31;;;4.14;100.00
28927;BME280;16038;47.692;9.400;2022-11-20T01:42:26;96270.66;;;4.07;100.00
28927;BME280;16038;47.692;9.400;2022-11-20T01:45:46;96265.69;;;4.09;100.00
28927;BME280;16038;47.692;9.400;2022-11-20T01:48:18;96272.09;;;4.05;100.00
28927;BME280;16038;47.692;9.400;2022-11-20T01:50:45;96274.59;;;4.10;100.00
28927;BME280;16038;47.692;9.400;2022-11-20T01:53:13;96272.31;;;3.99;100.00
28927;BME280;16038;47.692;9.400;2022-11-20T01:55:48;96276.88;;;4.08;100.00
28927;BME280;16038;47.692;9.400;2022-11-20T01:58:15;96271.81;;;4.18;100.00
28927;BME280;16038;47.692;9.400;2022-11-20T02:00:42;96273.13;;;4.12;100.00
28927;BME280;16038;47.692;9.400;2022-11-20T02:03:13;96273.69;;;4.06;100.00
28927;BME280;16038;47.692;9.400;2022-11-20T02:05:49;96279.25;;;4.09;100.00
28927;BME280;16038;47.692;9.400;2022-11-20T02:08:17;96278.31;;;4.05;100.00
28927;BME280;16038;47.692;9.400;2022-11-20T02:10:43;96276.41;;;4.06;100.00
28927;BME280;16038;47.692;9.400;2022-11-20T02:13:08;96272.09;;;4.05;100.00
28927;BME280;16038;47.692;9.400;2022-11-20T02:15:52;96277.53;;;4.05;100.00
28927;BME280;16038;47.692;9.400;2022-11-20T02:18:19;96280.72;;;4.19;100.00
28927;BME280;16038;47.692;9.400;2022-11-20T02:20:48;96279.16;;;4.30;100.00
28927;BME280;16038;47.692;9.400;2022-11-20T02:23:24;96282.81;;;4.34;100.00
28927;BME280;16038;47.692;9.400;2022-11-20T02:25:53;96281.50;;;4.19;100.00
28927;BME280;16038;47.692;9.400;2022-11-20T02:28:20;96275.22;;;4.28;100.00
28927;BME280;16038;47.692;9.400;2022-11-20T02:30:45;96280.84;;;4.22;100.00
28927;BME280;16038;47.692;9.400;2022-11-20T02:33:12;96279.03;;;4.27;100.00
28927;BME280;16038;47.692;9.400;2022-11-20T02:35:41;96277.16;;;4.39;100.00
28927;BME280;16038;47.692;9.400;2022-11-20T02:38:07;96278.28;;;4.38;100.00
28927;BME280;16038;47.692;9.400;2022-11-20T02:40:32;96272.66;;;4.44;100.00
28927;BME280;16038;47.692;9.400;2022-11-20T02:42:58;96269.03;;;4.39;100.00
28927;BME280;16038;47.692;9.400;2022-11-20T02:45:24;96280.34;;;4.42;100.00
28927;BME280;16038;47.692;9.400;2022-11-20T02:47:50;96285.41;;;4.43;100.00
28927;BME280;16038;47.692;9.400;2022-11-20T02:50:16;96279.53;;;4.41;100.00
28927;BME280;16038;47.692;9.400;2022-11-20T02:52:42;96277.28;;;4.43;100.00
28927;BME280;16038;47.692;9.400;2022-11-20T02:55:07;96277.03;;;4.48;100.00
28927;BME280;16038;47.692;9.400;2022-11-20T02:57:33;96274.31;;;4.48;100.00
28927;BME280;16038;47.692;9.400;2022-11-20T02:59:58;96278.84;;;4.44;100.00
28927;BME280;16038;47.692;9.400;2022-11-20T03:02:24;96274.56;;;4.43;100.00
28927;BME280;16038;47.692;9.400;2022-11-20T03:04:49;96280.00;;;4.43;100.00
28927;BME280;16038;47.692;9.400;2022-11-20T03:07:15;96277.47;;;4.26;100.00
28927;BME280;16038;47.692;9.400;2022-11-20T03:09:40;96275.88;;;4.25;100.00
28927;BME280;16038;47.692;9.400;2022-11-20T03:12:06;96273.63;;;4.14;100.00
28927;BME280;16038;47.692;9.400;2022-11-20T03:14:32;96277.22;;;4.18;100.00
28927;BME280;16038;47.692;9.400;2022-11-20T03:16:57;96277.00;;;4.11;100.00
28927;BME280;16038;47.692;9.400;2022-11-20T03:19:23;96273.94;;;4.13;100.00
28927;BME280;16038;47.692;9.400;2022-11-20T03:21:49;96277.00;;;4.11;100.00
28927;BME280;16038;47.692;9.400;2022-11-20T03:24:14;96277.81;;;4.24;100.00
28927;BME280;16038;47.692;9.400;2022-11-20T03:26:40;96278.16;;;4.35;100.00
28927;BME280;16038;47.692;9.400;2022-11-20T03:29:06;96273.84;;;4.34;100.00
28927;BME280;16038;47.692;9.400;2022-11-20T03:31:38;96270.69;;;4.32;100.00
28927;BME280;16038;47.692;9.400;2022-11-20T03:34:06;96271.63;;;4.48;100.00
28927;BME280;16038;47.692;9.400;2022-11-20T03:36:32;96273.66;;;4.51;100.00
28927;BME280;16038;47.692;9.400;2022-11-20T03:38:58;96280.00;;;4.43;100.00
28927;BME280;16038;47.692;9.400;2022-11-20T03:41:29;96277.50;;;4.38;100.00
28927;BME280;16038;47.692;9.400;2022-11-20T03:43:59;96280.44;;;4.33;100.00
28927;BME280;16038;47.692;9.400;2022-11-20T03:46:26;96280.50;;;4.24;100.00
28927;BME280;16038;47.692;9.400;2022-11-20T03:48:52;96273.13;;;4.12;100.00
28927;BME280;16038;47.692;9.400;2022-11-20T03:51:23;96273.50;;;4.11;100.00
28927;BME280;16038;47.692;9.400;2022-11-20T03:53:50;96274.94;;;4.08;100.00
28927;BME280;16038;47.692;9.400;2022-11-20T03:56:19;96262.97;;;4.09;100.00
28927;BME280;16038;47.692;9.400;2022-11-20T03:58:45;96269.84;;;4.07;100.00
28927;BME280;16038;47.692;9.400;2022-11-20T04:01:20;96271.56;;;4.11;100.00
28927;BME280;16038;47.692;9.400;2022-11-20T04:03:45;96275.72;;;4.09;100.00
28927;BME280;16038;47.692;9.400;2022-11-20T04:06:20;96274.84;;;4.17;100.00
28927;BME280;16038;47.692;9.400;2022-11-20T04:08:45;96276.81;;;4.29;100.00
28927;BME280;16038;47.692;9.400;2022-11-20T04:11:13;96277.16;;;4.39;100.00
28927;BME280;16038;47.692;9.400;2022-11-20T04:13:40;96269.13;;;4.55;100.00
28927;BME280;16038;47.692;9.400;2022-11-20T04:16:08;96268.94;;;4.73;100.00
28927;BME280;16038;47.692;9.400;2022-11-20T04:18:34;96271.88;;;4.68;100.00
28927;BME280;16038;47.692;9.400;2022-11-20T04:20:59;96265.09;;;4.74;100.00
28927;BME280;16038;47.692;9.400;2022-11-20T04:23:25;96265.44;;;4.72;100.00
28927;BME280;16038;47.692;9.400;2022-11-20T04:25:52;96263.84;;;4.59;100.00
28927;BME280;16038;47.692;9.400;2022-11-20T04:28:17;96266.09;;;4.57;100.00
28927;BME280;16038;47.692;9.400;2022-11-20T04:30:42;96268.66;;;4.41;100.00
28927;BME280;16038;47.692;9.400;2022-11-20T04:33:08;96267.09;;;4.28;100.00
28927;BME280;16038;47.692;9.400;2022-11-20T04:35:34;96270.53;;;4.16;100.00
28927;BME280;16038;47.692;9.400;2022-11-20T04:38:00;96260.28;;;4.09;100.00
28927;BME280;16038;47.692;9.400;2022-11-20T04:40:26;96258.09;;;4.02;100.00
28927;BME280;16038;47.692;9.400;2022-11-20T04:42:51;96265.91;;;4.04;100.00
28927;BME280;16038;47.692;9.400;2022-11-20T04:45:16;96267.16;;;4.19;100.00
28927;BME280;16038;47.692;9.400;2022-11-20T04:47:42;96261.28;;;4.17;100.00
28927;BME280;16038;47.692;9.400;2022-11-20T04:50:08;96265.19;;;4.40;100.00
28927;BME280;16038;47.692;9.400;2022-11-20T04:52:34;96273.19;;;4.37;100.00
28927;BME280;16038;47.692;9.400;2022-11-20T04:54:59;96276.69;;;4.37;100.00
28927;BME280;16038;47.692;9.400;2022-11-20T04:57:25;96276.69;;;4.37;100.00
28927;BME280;16038;47.692;9.400;2022-11-20T04:59:50;96275.13;;;4.36;100.00
28927;BME280;16038;47.692;9.400;2022-11-20T05:02:15;96281.53;;;4.32;100.00
28927;BME280;16038;47.692;9.400;2022-11-20T05:04:41;96279.75;;;4.36;100.00
28927;BME280;16038;47.692;9.400;2022-11-20T05:07:08;96282.34;;;4.32;100.00
28927;BME280;16038;47.692;9.400;2022-11-20T05:09:34;96284.13;;;4.28;100.00
28927;BME280;16038;47.692;9.400;2022-11-20T05:11:59;96281.75;;;4.27;100.00
28927;BME280;16038;47.692;9.400;2022-11-20T05:14:25;96289.25;;;4.42;100.00
28927;BME280;16038;47.692;9.400;2022-11-20T05:16:50;96283.69;;;4.26;100.00
28927;BME280;16038;47.692;9.400;2022-11-20T05:19:16;96280.94;;;4.14;100.00
28927;BME280;16038;47.692;9.400;2022-11-20T05:21:41;96286.69;;;4.12;100.00
28927;BME280;16038;47.692;9.400;2022-11-20T05:24:07;96285.56;;;4.13;100.00
28927;BME280;16038;47.692;9.400;2022-11-20T05:26:32;96285.56;;;4.13;100.00
28927;BME280;16038;47.692;9.400;2022-11-20T05:28:58;96299.44;;;4.12;100.00
28927;BME280;16038;47.692;9.400;2022-11-20T05:31:24;96290.75;;;4.06;100.00
28927;BME280;16038;47.692;9.400;2022-11-20T05:33:50;96300.34;;;4.16;100.00
28927;BME280;16038;47.692;9.400;2022-11-20T05:36:16;96303.19;;;4.19;100.00
28927;BME280;16038;47.692;9.400;2022-11-20T05:38:42;96297.34;;;4.30;100.00
28927;BME280;16038;47.692;9.400;2022-11-20T05:41:14;96296.78;;;4.24;100.00
28927;BME280;16038;47.692;9.400;2022-11-20T05:43:42;96302.97;;;4.25;100.00
28927;BME280;16038;47.692;9.400;2022-11-20T05:46:09;96292.59;;;4.27;100.00
28927;BME280;16038;47.692;9.400;2022-11-20T05:48:35;96296.44;;;4.26;100.00
28927;BME280;16038;47.692;9.400;2022-11-20T05:51:02;96296.31;;;4.22;100.00
28927;BME280;16038;47.692;9.400;2022-11-20T05:53:28;96300.47;;;4.19;100.00
28927;BME280;16038;47.692;9.400;2022-11-20T05:56:20;96303.06;;;4.16;100.00
28927;BME280;16038;47.692;9.400;2022-11-20T05:58:47;96302.06;;;4.20;100.00
28927;BME280;16038;47.692;9.400;2022-11-20T06:01:23;96302.03;;;4.08;100.00
28927;BME280;16038;47.692;9.400;2022-11-20T06:03:49;96300.84;;;4.18;100.00
28927;BME280;16038;47.692;9.400;2022-11-20T06:06:16;96300.97;;;4.21;100.00
28927;BME280;16038;47.692;9.400;2022-11-20T06:08:43;96303.56;;;4.18;100.00
28927;BME280;16038;47.692;9.400;2022-11-20T06:11:10;96307.63;;;4.24;100.00
28927;BME280;16038;47.692;9.400;2022-11-20T06:13:36;96301.53;;;4.27;100.00
28927;BME280;16038;47.692;9.400;2022-11-20T06:16:03;96301.41;;;4.24;100.00
28927;BME280;16038;47.692;9.400;2022-11-20T06:18:29;96304.00;;;4.20;100.00
28927;BME280;16038;47.692;9.400;2022-11-20T06:21:09;96313.38;;;4.22;100.00
28927;BME280;16038;47.692;9.400;2022-11-20T06:23:36;96307.28;;;4.26;100.00
28927;BME280;16038;47.692;9.400;2022-11-20T06:26:13;96311.03;;;4.33;100.00
28927;BME280;16038;47.692;9.400;2022-11-20T06:28:39;96310.69;;;4.35;100.00
28927;BME280;16038;47.692;9.400;2022-11-20T06:31:05;96312.53;;;4.43;100.00
28927;BME280;16038;47.692;9.400;2022-11-20T06:33:31;96300.88;;;4.43;100.00
28927;BME280;16038;47.692;9.400;2022-11-20T06:35:58;96299.97;;;4.38;100.00
28927;BME280;16038;47.692;9.400;2022-11-20T06:38:24;96301.13;;;4.50;100.00
28927;BME280;16038;47.692;9.400;2022-11-20T06:40:50;96310.63;;;4.56;100.00
28927;BME280;16038;47.692;9.400;2022-11-20T06:43:15;96308.81;;;4.60;100.00
28927;BME280;16038;47.692;9.400;2022-11-20T06:45:41;96313.03;;;4.57;100.00
28927;BME280;16038;47.692;9.400;2022-11-20T06:48:06;96321.84;;;4.67;100.00
28927;BME280;16038;47.692;9.400;2022-11-20T06:50:32;96321.72;;;4.63;100.00
28927;BME280;16038;47.692;9.400;2022-11-20T06:53:01;96324.19;;;4.56;100.00
28927;BME280;16038;47.692;9.400;2022-11-20T06:55:27;96326.22;;;4.59;100.00
28927;BME280;16038;47.692;9.400;2022-11-20T06:57:53;96334.34;;;4.59;100.00
28927;BME280;16038;47.692;9.400;2022-11-20T07:00:18;96327.13;;;4.51;100.00
28927;BME280;16038;47.692;9.400;2022-11-20T07:02:44;96332.53;;;4.51;100.00
28927;BME280;16038;47.692;9.400;2022-11-20T07:05:09;96338.34;;;4.62;100.00
28927;BME280;16038;47.692;9.400;2022-11-20T07:07:35;96337.31;;;4.54;100.00
28927;BME280;16038;47.692;9.400;2022-11-20T07:10:00;96335.50;;;4.58;100.00
28927;BME280;16038;47.692;9.400;2022-11-20T07:12:26;96336.66;;;4.82;100.00
28927;BME280;16038;47.692;9.400;2022-11-20T07:14:51;96338.91;;;4.79;100.00
28927;BME280;16038;47.692;9.400;2022-11-20T07:17:16;96344.00;;;4.69;100.00
28927;BME280;16038;47.692;9.400;2022-11-20T07:19:42;96343.66;;;4.70;100.00
28927;BME280;16038;47.692;9.400;2022-11-20T07:22:08;96347.59;;;4.73;100.00
28927;BME280;16038;47.692;9.400;2022-11-20T07:24:34;96349.22;;;4.74;100.00
28927;BME280;16038;47.692;9.400;2022-11-20T07:27:00;96352.50;;;4.79;100.00
28927;BME280;16038;47.692;9.400;2022-11-20T07:29:25;96349.78;;;4.79;100.00
28927;BME280;16038;47.692;9.400;2022-11-20T07:31:50;96351.72;;;4.79;100.00
28927;BME280;16038;47.692;9.400;2022-11-20T07:34:16;96350.69;;;4.84;100.00
28927;BME280;16038;47.692;9.400;2022-11-20T07:36:41;96358.56;;;4.76;100.00
28927;BME280;16038;47.692;9.400;2022-11-20T07:39:07;96359.38;;;4.89;100.00
28927;BME280;16038;47.692;9.400;2022-11-20T07:41:32;96356.00;;;4.92;100.00
28927;BME280;16038;47.692;9.400;2022-11-20T07:43:58;96353.75;;;4.94;100.00
28927;BME280;16038;47.692;9.400;2022-11-20T07:46:23;96355.78;;;4.97;100.00
28927;BME280;16038;47.692;9.400;2022-11-20T07:48:48;96354.31;;;5.00;100.00
28927;BME280;16038;47.692;9.400;2022-11-20T07:51:14;96355.78;;;4.97;100.00
28927;BME280;16038;47.692;9.400;2022-11-20T07:53:39;96356.44;;;4.94;100.00
28927;BME280;16038;47.692;9.400;2022-11-20T07:56:05;96357.25;;;5.07;100.00
28927;BME280;16038;47.692;9.400;2022-11-20T07:58:31;96359.53;;;5.17;100.00
28927;BME280;16038;47.692;9.400;2022-11-20T08:01:02;96369.25;;;5.19;100.00
28927;BME280;16038;47.692;9.400;2022-11-20T08:03:28;96365.19;;;5.25;100.00
28927;BME280;16038;47.692;9.400;2022-11-20T08:05:53;96358.47;;;5.34;100.00
28927;BME280;16038;47.692;9.400;2022-11-20T08:08:19;96372.19;;;5.26;100.00
28927;BME280;16038;47.692;9.400;2022-11-20T08:10:44;96365.19;;;5.25;100.00
28927;BME280;16038;47.692;9.400;2022-11-20T08:13:10;96371.50;;;5.16;100.00
28927;BME280;16038;47.692;9.400;2022-11-20T08:15:53;96365.97;;;5.25;100.00
28927;BME280;16038;47.692;9.400;2022-11-20T08:18:19;96370.28;;;5.39;100.00
28927;BME280;16038;47.692;9.400;2022-11-20T08:20:44;96360.31;;;5.30;100.00
28927;BME280;16038;47.692;9.400;2022-11-20T08:23:10;96359.97;;;5.32;100.00
28927;BME280;16038;47.692;9.400;2022-11-20T08:25:37;96368.78;;;5.41;100.00
28927;BME280;16038;47.692;9.400;2022-11-20T08:28:08;96366.63;;;5.34;100.00
28927;BME280;16038;47.692;9.400;2022-11-20T08:30:35;96371.16;;;5.43;100.00
28927;BME280;16038;47.692;9.400;2022-11-20T08:33:03;96369.22;;;5.43;100.00
28927;BME280;16038;47.692;9.400;2022-11-20T08:35:32;96372.06;;;5.47;100.00
28927;BME280;16038;47.692;9.400;2022-11-20T08:37:58;96376.69;;;5.59;100.00
28927;BME280;16038;47.692;9.400;2022-11-20T08:40:24;96367.72;;;5.58;100.00
28927;BME280;16038;47.692;9.400;2022-11-20T08:42:50;96376.69;;;5.71;100.00
28927;BME280;16038;47.692;9.400;2022-11-20T08:45:17;96376.06;;;5.90;100.00
28927;BME280;16038;47.692;9.400;2022-11-20T08:47:43;96379.56;;;5.90;100.00
28927;BME280;16038;47.692;9.400;2022-11-20T08:50:09;96379.22;;;5.92;100.00
28927;BME280;16038;47.692;9.400;2022-11-20T08:52:35;96372.78;;;5.84;100.00
28927;BME280;16038;47.692;9.400;2022-11-20T08:55:01;96375.72;;;6.04;100.00
28927;BME280;16038;47.692;9.400;2022-11-20T08:57:26;96367.41;;;6.12;100.00
28927;BME280;16038;47.692;9.400;2022-11-20T08:59:51;96377.97;;;6.30;100.00
28927;BME280;16038;47.692;9.400;2022-11-20T09:02:17;96370.19;;;6.28;100.00
28927;BME280;16038;47.692;9.400;2022-11-20T09:04:42;96373.75;;;6.17;100.00
28927;BME280;16038;47.692;9.400;2022-11-20T09:07:07;96368.06;;;6.66;100.00
28927;BME280;16038;47.692;9.400;2022-11-20T09:09:33;96370.00;;;6.65;100.00
28927;BME280;16038;47.692;9.400;2022-11-20T09:11:58;96370.81;;;6.82;100.00
28927;BME280;16038;47.692;9.400;2022-11-20T09:14:24;96367.03;;;6.70;99.23
28927;BME280;16038;47.692;9.400;2022-11-20T09:16:57;96361.06;;;6.81;99.54
28927;BME280;16038;47.692;9.400;2022-11-20T09:19:23;96361.06;;;6.81;100.00
28927;BME280;16038;47.692;9.400;2022-11-20T09:21:49;96365.81;;;7.00;99.40
28927;BME280;16038;47.692;9.400;2022-11-20T09:24:14;96368.44;;;6.96;98.88
28927;BME280;16038;47.692;9.400;2022-11-20T09:26:40;96364.81;;;7.40;96.98
28927;BME280;16038;47.692;9.400;2022-11-20T09:29:05;96357.00;;;7.38;95.73
28927;BME280;16038;47.692;9.400;2022-11-20T09:31:31;96365.81;;;7.32;96.41
28927;BME280;16038;47.692;9.400;2022-11-20T09:33:59;96363.78;;;7.28;96.07
28927;BME280;16038;47.692;9.400;2022-11-20T09:36:28;96365.53;;;7.37;94.35
28927;BME280;16038;47.692;9.400;2022-11-20T09:38:54;96363.59;;;7.37;95.56
28927;BME280;16038;47.692;9.400;2022-11-20T09:47:01;96372.72;;;7.45;95.41
28927;BME280;16038;47.692;9.400;2022-11-20T09:52:32;96364.47;;;7.41;94.75
28927;BME280;16038;47.692;9.400;2022-11-20T09:55:01;96353.66;;;7.29;95.12
28927;BME280;16038;47.692;9.400;2022-11-20T09:57:36;96356.09;;;7.50;95.04
28927;BME280;16038;47.692;9.400;2022-11-20T10:00:04;96356.38;;;7.45;94.25
28927;BME280;16038;47.692;9.400;2022-11-20T10:02:37;96361.91;;;7.49;93.42
28927;BME280;16038;47.692;9.400;2022-11-20T10:05:26;96361.75;;;7.41;91.93
28927;BME280;16038;47.692;9.400;2022-11-20T10:07:54;96357.97;;;7.46;91.35
28927;BME280;16038;47.692;9.400;2022-11-20T10:10:36;96356.38;;;7.45;91.22
28927;BME280;16038;47.692;9.400;2022-11-20T10:26:31;96341.94;;;8.38;83.45
28927;BME280;16038;47.692;9.400;2022-11-20T10:29:22;96342.53;;;8.28;83.25
28927;BME280;16038;47.692;9.400;2022-11-20T10:32:02;96344.53;;;8.31;84.43
28927;BME280;16038;47.692;9.400;2022-11-20T10:42:45;96352.94;;;8.03;83.82
28927;BME280;16038;47.692;9.400;2022-11-20T10:47:49;96349.78;;;8.20;83.04
28927;BME280;16038;47.692;9.400;2022-11-20T10:50:18;96353.09;;;8.49;80.36
28927;BME280;16038;47.692;9.400;2022-11-20T10:55:50;96344.53;;;9.16;78.81
28927;BME280;16038;47.692;9.400;2022-11-20T10:58:47;96338.56;;;9.91;71.89
28927;BME280;16038;47.692;9.400;2022-11-20T11:03:42;96340.81;;;9.55;72.77
28927;BME280;16038;47.692;9.400;2022-11-20T11:06:19;96325.97;;;8.79;74.97
28927;BME280;16038;47.692;9.400;2022-11-20T11:08:49;96347.34;;;8.54;75.34
28927;BME280;16038;47.692;9.400;2022-11-20T11:11:28;96332.06;;;8.50;77.60
28927;BME280;16038;47.692;9.400;2022-11-20T11:14:08;96326.34;;;7.96;79.60
28927;BME280;16038;47.692;9.400;2022-11-20T11:16:34;96331.63;;;7.70;80.12
28927;BME280;16038;47.692;9.400;2022-11-20T11:19:10;96318.50;;;7.75;81.08
28927;BME280;16038;47.692;9.400;2022-11-20T11:21:37;96315.91;;;7.82;82.07
28927;BME280;16038;47.692;9.400;2022-11-20T11:24:21;96316.78;;;7.67;83.48
28927;BME280;16038;47.692;9.400;2022-11-20T11:27:11;96322.22;;;7.67;82.72
28927;BME280;16038;47.692;9.400;2022-11-20T11:29:37;96316.47;;;7.53;84.05
28927;BME280;16038;47.692;9.400;2022-11-20T11:32:08;96319.72;;;7.42;84.77
28927;BME280;16038;47.692;9.400;2022-11-20T11:34:33;96317.19;;;7.34;86.05
28927;BME280;16038;47.692;9.400;2022-11-20T11:37:00;96321.75;;;7.45;87.05
28927;BME280;16038;47.692;9.400;2022-11-20T11:39:30;96314.44;;;7.50;87.92
28927;BME280;16038;47.692;9.400;2022-11-20T11:41:57;96306.31;;;7.34;88.51
28927;BME280;16038;47.692;9.400;2022-11-20T11:44:28;96300.78;;;7.30;87.98
28927;BME280;16038;47.692;9.400;2022-11-20T11:49:48;96306.84;;;7.23;88.87
28927;BME280;16038;47.692;9.400;2022-11-20T11:52:18;96290.75;;;7.34;88.08
28927;BME280;16038;47.692;9.400;2022-11-20T11:54:53;96286.88;;;7.35;88.94
28927;BME280;16038;47.692;9.400;2022-11-20T12:00:11;96291.16;;;7.17;91.10
28927;BME280;16038;47.692;9.400;2022-11-20T12:05:49;96297.25;;;7.30;90.51
28927;BME280;16038;47.692;9.400;2022-11-20T12:08:24;96287.66;;;7.36;88.64
28927;BME280;16038;47.692;9.400;2022-11-20T12:13:35;96298.97;;;7.02;89.79
28927;BME280;16038;47.692;9.400;2022-11-20T12:16:03;96301.69;;;7.02;92.30
28927;BME280;16038;47.692;9.400;2022-11-20T12:18:29;96295.78;;;7.00;93.84
28927;BME280;16038;47.692;9.400;2022-11-20T12:21:11;96290.69;;;7.15;95.65
28927;BME280;16038;47.692;9.400;2022-11-20T12:26:33;96286.94;;;6.87;98.29
28927;BME280;16038;47.692;9.400;2022-11-20T12:34:38;96269.53;;;7.08;97.73
28927;BME280;16038;47.692;9.400;2022-11-20T12:39:50;96275.22;;;7.19;96.17
28927;BME280;16038;47.692;9.400;2022-11-20T12:56:06;96258.28;;;7.64;89.90
28927;BME280;16038;47.692;9.400;2022-11-20T13:07:11;96247.44;;;7.49;89.05
28927;BME280;16038;47.692;9.400;2022-11-20T13:09:42;96241.41;;;7.39;87.49
28927;BME280;16038;47.692;9.400;2022-11-20T13:17:57;96229.03;;;7.42;87.52
28927;BME280;16038;47.692;9.400;2022-11-20T13:20:24;96228.31;;;7.45;88.08
28927;BME280;16038;47.692;9.400;2022-11-20T13:22:51;96224.38;;;7.42;86.46
28927;BME280;16038;47.692;9.400;2022-11-20T13:27:52;96213.69;;;7.34;86.67
28927;BME280;16038;47.692;9.400;2022-11-20T13:30:22;96221.91;;;7.37;86.07
28927;BME280;16038;47.692;9.400;2022-11-20T13:33:03;96217.75;;;7.63;86.19
28927;BME280;16038;47.692;9.400;2022-11-20T13:35:36;96215.81;;;7.83;84.04
28927;BME280;16038;47.692;9.400;2022-11-20T13:38:13;96207.97;;;8.01;83.92
28927;BME280;16038;47.692;9.400;2022-11-20T13:40:51;96200.66;;;8.05;83.42
28927;BME280;16038;47.692;9.400;2022-11-20T13:46:00;96202.91;;;8.22;80.41
28927;BME280;16038;47.692;9.400;2022-11-20T13:48:30;96193.97;;;8.02;79.45
28927;BME280;16038;47.692;9.400;2022-11-20T13:51:03;96191.66;;;7.81;81.24
28927;BME280;16038;47.692;9.400;2022-11-20T14:02:26;96188.81;;;7.74;81.15
28927;BME280;16038;47.692;9.400;2022-11-20T14:04:54;96195.88;;;7.59;83.28
28927;BME280;16038;47.692;9.400;2022-11-20T14:07:24;96189.22;;;7.57;82.95
28927;BME280;16038;47.692;9.400;2022-11-20T14:09:55;96183.34;;;7.35;84.17
28927;BME280;16038;47.692;9.400;2022-11-20T14:12:27;96189.88;;;7.31;85.13
28927;BME280;16038;47.692;9.400;2022-11-20T14:14:54;96180.56;;;7.32;84.98
28927;BME280;16038;47.692;9.400;2022-11-20T14:19:56;96188.91;;;7.03;86.93
28927;BME280;16038;47.692;9.400;2022-11-20T14:22:25;96178.25;;;7.14;87.20
28927;BME280;16038;47.692;9.400;2022-11-20T14:27:41;96179.06;;;7.96;83.92
28927;BME280;16038;47.692;9.400;2022-11-20T14:31:03;96175.38;;;8.08;83.81
28927;BME280;16038;47.692;9.400;2022-11-20T14:33:11;96169.97;;;8.12;83.66
28927;BME280;16038;47.692;9.400;2022-11-20T14:38:13;96168.75;;;7.86;84.66
28927;BME280;16038;47.692;9.400;2022-11-20T14:40:39;96163.22;;;7.82;84.33
28927;BME280;16038;47.692;9.400;2022-11-20T14:45:59;96148.13;;;7.65;86.70
28927;BME280;16038;47.692;9.400;2022-11-20T14:48:45;96145.41;;;7.65;86.67
28927;BME280;16038;47.692;9.400;2022-11-20T14:51:27;96146.47;;;7.61;86.21
28927;BME280;16038;47.692;9.400;2022-11-20T14:53:53;96141.47;;;7.43;87.44
28927;BME280;16038;47.692;9.400;2022-11-20T14:56:23;96156.47;;;7.34;88.84
28927;BME280;16038;47.692;9.400;2022-11-20T14:58:58;96147.22;;;7.19;89.46
28927;BME280;16038;47.692;9.400;2022-11-20T15:01:28;96158.13;;;7.19;90.39
28927;BME280;16038;47.692;9.400;2022-11-20T15:04:09;96159.66;;;7.00;91.52